createdAt,value
2019-05-20T00:00:34.331Z,99.90
2019-05-20T00:03:04.166Z,99.90
2019-05-20T00:05:34.166Z,99.90
2019-05-20T00:08:03.906Z,99.90
2019-05-20T00:10:33.765Z,99.90
2019-05-20T00:13:03.622Z,99.90
2019-05-20T00:15:33.509Z,99.90
2019-05-20T00:18:03.472Z,99.90
2019-05-20T00:20:33.525Z,99.90
2019-05-20T00:23:03.450Z,99.90
2019-05-20T00:25:33.331Z,99.90
2019-05-20T00:28:03.364Z,99.90
2019-05-20T00:30:36.795Z,99.90
2019-05-20T00:33:06.691Z,99.90
2019-05-20T00:35:36.745Z,99.90
2019-05-20T00:38:06.630Z,99.90
2019-05-20T00:40:36.431Z,99.90
2019-05-20T00:43:06.276Z,99.90
2019-05-20T00:45:36.202Z,99.90
2019-05-20T00:48:06.010Z,99.90
2019-05-20T00:50:36.260Z,99.90
2019-05-20T00:53:06.057Z,99.90
2019-05-20T00:55:37.550Z,99.90
2019-05-20T00:58:07.430Z,99.90
2019-05-20T01:00:37.525Z,99.90
2019-05-20T01:03:07.338Z,99.90
2019-05-20T01:05:37.234Z,99.90
2019-05-20T01:08:06.998Z,99.90
2019-05-20T01:10:36.909Z,99.90
2019-05-20T01:13:06.783Z,99.90
2019-05-20T01:15:36.647Z,99.90
2019-05-20T01:18:06.577Z,99.90
2019-05-20T01:20:36.486Z,99.90
2019-05-20T01:23:06.551Z,99.90
2019-05-20T01:25:36.410Z,99.90
2019-05-20T01:28:06.200Z,99.90
2019-05-20T01:30:36.137Z,99.90
2019-05-20T01:33:13.636Z,99.90
2019-05-20T01:35:37.626Z,99.90
2019-05-20T01:38:08.653Z,99.90
2019-05-20T01:40:38.661Z,99.90
2019-05-20T01:43:08.433Z,99.90
2019-05-20T01:45:38.433Z,99.90
2019-05-20T01:48:08.252Z,99.90
2019-05-20T01:50:38.119Z,99.90
2019-05-20T01:53:08.088Z,99.90
2019-05-20T01:55:37.925Z,99.90
2019-05-20T01:58:07.953Z,99.90
2019-05-20T02:00:37.821Z,99.90
2019-05-20T02:03:07.684Z,99.90
2019-05-20T02:05:37.594Z,99.90
2019-05-20T02:08:07.418Z,99.90
2019-05-20T02:10:37.357Z,99.90
2019-05-20T02:13:07.204Z,99.90
2019-05-20T02:15:49.305Z,99.90
2019-05-20T02:18:19.616Z,99.90
2019-05-20T02:20:49.471Z,99.90
2019-05-20T02:23:19.543Z,99.90
2019-05-20T02:25:51.767Z,99.90
2019-05-20T02:28:21.578Z,99.90
2019-05-20T02:30:56.889Z,99.90
2019-05-20T02:33:26.110Z,99.90
2019-05-20T02:35:55.992Z,99.90
2019-05-20T02:38:25.844Z,99.90
2019-05-20T02:40:55.818Z,99.90
2019-05-20T02:43:25.664Z,99.90
2019-05-20T02:45:55.622Z,99.90
2019-05-20T02:48:25.466Z,99.90
2019-05-20T02:50:55.338Z,99.90
2019-05-20T02:53:25.279Z,99.90
2019-05-20T02:55:55.251Z,99.90
2019-05-20T02:58:25.308Z,99.90
2019-05-20T03:00:55.164Z,99.90
2019-05-20T03:03:24.943Z,99.90
2019-05-20T03:05:54.797Z,99.90
2019-05-20T03:08:24.595Z,99.90
2019-05-20T03:10:54.517Z,99.90
2019-05-20T03:13:24.344Z,99.90
2019-05-20T03:15:54.198Z,99.90
2019-05-20T03:18:24.182Z,99.90
2019-05-20T03:20:54.087Z,99.90
2019-05-20T03:23:24.026Z,99.90
2019-05-20T03:25:53.967Z,99.90
2019-05-20T03:28:24.185Z,99.90
2019-05-20T03:30:54.050Z,99.90
2019-05-20T03:33:24.192Z,99.90
2019-05-20T03:35:54.072Z,99.90
2019-05-20T03:38:23.870Z,99.90
2019-05-20T03:40:53.753Z,99.90
2019-05-20T03:43:23.634Z,99.90
2019-05-20T03:45:53.791Z,99.90
2019-05-20T03:48:23.578Z,99.90
2019-05-20T03:50:53.487Z,99.90
2019-05-20T03:53:23.409Z,99.90
2019-05-20T03:55:53.294Z,99.90
2019-05-20T03:58:23.240Z,99.90
2019-05-20T04:00:53.022Z,99.90
2019-05-20T04:03:22.948Z,99.90
2019-05-20T04:05:52.801Z,99.90
2019-05-20T04:08:22.759Z,99.90
2019-05-20T04:10:52.570Z,99.90
2019-05-20T04:13:22.570Z,99.90
2019-05-20T04:15:52.460Z,99.90
2019-05-20T04:18:22.354Z,99.90
2019-05-20T04:20:52.362Z,99.90
2019-05-20T04:23:22.404Z,99.90
2019-05-20T04:25:52.222Z,99.90
2019-05-20T04:28:22.179Z,99.90
2019-05-20T04:30:52.004Z,99.90
2019-05-20T04:33:21.961Z,99.90
2019-05-20T04:35:51.827Z,99.90
2019-05-20T04:38:23.996Z,99.90
2019-05-20T04:40:53.832Z,99.90
2019-05-20T04:43:23.767Z,99.90
2019-05-20T04:45:54.251Z,99.90
2019-05-20T04:48:24.257Z,99.90
2019-05-20T04:50:54.102Z,99.90
2019-05-20T04:53:24.090Z,99.90
2019-05-20T04:55:53.920Z,99.90
2019-05-20T04:58:24.066Z,99.90
2019-05-20T05:00:58.988Z,99.90
2019-05-20T05:03:29.009Z,99.90
2019-05-20T05:05:58.907Z,99.90
2019-05-20T05:08:28.902Z,99.90
2019-05-20T05:10:59.113Z,99.90
2019-05-20T05:13:29.237Z,99.90
2019-05-20T05:15:59.290Z,99.90
2019-05-20T05:18:29.406Z,99.90
2019-05-20T05:20:59.291Z,99.90
2019-05-20T05:23:29.233Z,99.90
2019-05-20T05:25:59.052Z,99.90
2019-05-20T05:28:28.937Z,99.90
2019-05-20T05:30:58.814Z,99.90
2019-05-20T05:33:28.795Z,99.90
2019-05-20T05:35:58.734Z,99.90
2019-05-20T05:38:28.679Z,99.90
2019-05-20T05:40:58.672Z,99.90
2019-05-20T05:43:29.849Z,99.90
2019-05-20T05:45:59.919Z,99.90
2019-05-20T05:48:30.029Z,99.90
2019-05-20T05:50:59.950Z,99.90
2019-05-20T05:53:31.384Z,99.90
2019-05-20T05:56:03.430Z,99.90
2019-05-20T05:58:35.706Z,99.90
2019-05-20T06:01:08.098Z,99.90
2019-05-20T06:03:39.998Z,99.90
2019-05-20T06:06:12.599Z,99.90
2019-05-20T06:08:41.379Z,99.90
2019-05-20T06:11:11.199Z,99.90
2019-05-20T06:13:43.881Z,99.90
2019-05-20T06:16:13.732Z,99.90
2019-05-20T06:18:43.848Z,99.90
2019-05-20T06:21:13.696Z,99.90
2019-05-20T06:23:43.667Z,99.90
2019-05-20T06:26:13.589Z,99.90
2019-05-20T06:28:43.517Z,99.90
2019-05-20T06:31:13.382Z,99.90
2019-05-20T06:33:43.505Z,99.90
2019-05-20T06:36:25.981Z,99.90
2019-05-20T06:38:47.262Z,99.90
2019-05-20T06:41:17.135Z,99.90
2019-05-20T06:43:47.190Z,99.90
2019-05-20T06:46:17.207Z,99.90
2019-05-20T06:48:47.327Z,99.90
2019-05-20T06:51:17.215Z,99.90
2019-05-20T06:53:47.210Z,99.90
2019-05-20T06:56:17.097Z,99.90
2019-05-20T06:58:46.995Z,99.90
2019-05-20T07:01:16.910Z,99.90
2019-05-20T07:03:47.029Z,99.90
2019-05-20T07:06:17.085Z,99.90
2019-05-20T07:08:47.049Z,99.90
2019-05-20T07:11:17.080Z,99.90
2019-05-20T07:13:46.944Z,99.90
2019-05-20T07:16:16.893Z,99.90
2019-05-20T07:18:46.853Z,99.90
2019-05-20T07:21:16.727Z,99.90
2019-05-20T07:23:46.705Z,99.90
2019-05-20T07:26:17.531Z,99.90
2019-05-20T07:28:47.424Z,99.90
2019-05-20T07:31:17.316Z,99.90
2019-05-20T07:33:47.161Z,99.90
2019-05-20T07:36:17.024Z,99.90
2019-05-20T07:38:47.604Z,99.90
2019-05-20T07:41:17.484Z,99.90
2019-05-20T07:43:47.445Z,99.90
2019-05-20T07:46:17.729Z,99.90
2019-05-20T07:48:48.163Z,99.90
2019-05-20T07:51:18.644Z,99.90
2019-05-20T07:53:48.808Z,99.90
2019-05-20T07:56:22.081Z,99.90
2019-05-20T07:58:54.934Z,99.90
2019-05-20T08:01:26.263Z,99.90
2019-05-20T08:03:56.098Z,99.90
2019-05-20T08:06:26.048Z,99.90
2019-05-20T08:08:56.019Z,99.90
2019-05-20T08:11:25.845Z,99.90
2019-05-20T08:13:55.710Z,99.90
2019-05-20T08:16:25.654Z,99.90
2019-05-20T08:18:55.643Z,99.90
2019-05-20T08:21:25.640Z,99.90
2019-05-20T08:23:55.518Z,99.90
2019-05-20T08:26:25.788Z,99.90
2019-05-20T08:28:55.681Z,99.90
2019-05-20T08:31:25.844Z,99.90
2019-05-20T08:33:55.860Z,99.90
2019-05-20T08:36:27.763Z,99.90
2019-05-20T08:39:02.982Z,99.90
2019-05-20T08:41:33.220Z,99.90
2019-05-20T08:44:09.354Z,99.90
2019-05-20T08:46:44.040Z,99.90
2019-05-20T08:49:21.772Z,99.90
2019-05-20T08:51:53.078Z,99.90
2019-05-20T08:54:28.708Z,95.40
2019-05-20T08:57:06.460Z,96.60
2019-05-20T08:59:50.486Z,94.40
2019-05-20T09:02:30.851Z,93.50
2019-05-20T09:05:07.121Z,91.60
2019-05-20T09:08:02.881Z,91.70
2019-05-20T09:10:25.270Z,92.90
2019-05-20T09:12:56.452Z,93.90
2019-05-20T09:15:32.587Z,93.60
2019-05-20T09:18:06.936Z,92.20
2019-05-20T09:20:37.254Z,90.10
2019-05-20T09:23:13.579Z,89.10
2019-05-20T09:25:46.847Z,89.80
2019-05-20T09:28:36.827Z,88.80
2019-05-20T09:31:14.488Z,90.20
2019-05-20T09:33:51.566Z,86.40
2019-05-20T09:36:25.930Z,86.70
2019-05-20T09:39:00.810Z,87.70
2019-05-20T09:41:31.947Z,85.30
2019-05-20T09:44:04.833Z,83.40
2019-05-20T09:46:37.919Z,83.40
2019-05-20T09:49:13.810Z,78.20
2019-05-20T09:51:45.234Z,79.70
2019-05-20T09:54:20.194Z,74.00
2019-05-20T09:56:50.340Z,75.50
2019-05-20T09:59:21.630Z,73.70
2019-05-20T10:01:53.000Z,72.80
2019-05-20T10:04:23.574Z,71.40
2019-05-20T10:06:55.817Z,67.90
2019-05-20T10:09:26.348Z,67.30
2019-05-20T10:11:56.953Z,68.40
2019-05-20T10:14:30.736Z,68.50
2019-05-20T10:17:02.507Z,69.50
2019-05-20T10:19:33.445Z,70.10
2019-05-20T10:22:09.224Z,69.50
2019-05-20T10:24:42.570Z,70.80
2019-05-20T10:27:13.841Z,70.70
2019-05-20T10:29:44.599Z,68.40
2019-05-20T10:32:14.953Z,69.00
2019-05-20T10:34:45.296Z,68.60
2019-05-20T10:37:15.656Z,68.40
2019-05-20T10:39:47.046Z,67.00
2019-05-20T10:42:18.958Z,69.50
2019-05-20T10:44:55.699Z,68.80
2019-05-20T10:47:28.991Z,68.00
2019-05-20T10:50:04.892Z,68.00
2019-05-20T10:52:38.345Z,66.50
2019-05-20T10:55:09.974Z,66.50
2019-05-20T10:57:41.609Z,65.70
2019-05-20T11:00:17.755Z,64.70
2019-05-20T11:02:54.702Z,64.00
2019-05-20T11:05:29.701Z,63.20
2019-05-20T11:08:02.199Z,63.30
2019-05-20T11:10:33.180Z,63.00
2019-05-20T11:13:05.874Z,62.00
2019-05-20T11:15:43.009Z,61.40
2019-05-20T11:18:41.947Z,62.10
2019-05-20T11:20:59.935Z,61.90
2019-05-20T11:23:30.156Z,61.50
2019-05-20T11:26:00.341Z,63.80
2019-05-20T11:28:32.627Z,63.60
2019-05-20T11:31:02.559Z,66.30
2019-05-20T11:33:33.162Z,67.60
2019-05-20T11:36:12.177Z,69.00
2019-05-20T11:38:43.420Z,70.40
2019-05-20T11:41:16.532Z,70.70
2019-05-20T11:43:47.767Z,72.30
2019-05-20T11:46:17.764Z,73.10
2019-05-20T11:48:47.783Z,72.20
2019-05-20T11:51:18.423Z,72.10
2019-05-20T11:53:51.465Z,72.10
2019-05-20T11:56:21.588Z,70.90
2019-05-20T11:58:51.573Z,67.80
2019-05-20T12:01:21.617Z,68.10
2019-05-20T12:03:51.697Z,67.80
2019-05-20T12:06:23.418Z,67.70
2019-05-20T12:08:58.885Z,67.90
2019-05-20T12:11:29.678Z,69.00
2019-05-20T12:14:13.244Z,67.70
2019-05-20T12:16:47.957Z,67.70
2019-05-20T12:19:25.490Z,67.40
2019-05-20T12:21:57.021Z,68.50
2019-05-20T12:24:31.227Z,67.90
2019-05-20T12:27:13.216Z,67.60
2019-05-20T12:29:45.049Z,66.70
2019-05-20T12:32:28.913Z,67.60
2019-05-20T12:35:00.959Z,67.50
2019-05-20T12:37:30.897Z,67.20
2019-05-20T12:40:07.139Z,68.40
2019-05-20T12:42:33.601Z,67.70
2019-05-20T12:45:13.025Z,68.20
2019-05-20T12:47:48.935Z,67.60
2019-05-20T12:50:25.245Z,67.80
2019-05-20T12:53:02.232Z,68.60
2019-05-20T12:55:44.535Z,68.40
2019-05-20T12:58:14.649Z,69.30
2019-05-20T13:00:47.602Z,67.10
2019-05-20T13:03:19.066Z,68.90
2019-05-20T13:05:54.510Z,68.40
2019-05-20T13:08:27.987Z,68.00
2019-05-20T13:10:58.137Z,68.80
2019-05-20T13:13:28.332Z,68.10
2019-05-20T13:15:59.320Z,68.50
2019-05-20T13:18:36.790Z,68.40
2019-05-20T13:21:11.108Z,69.00
2019-05-20T13:23:49.045Z,69.80
2019-05-20T13:26:20.708Z,71.70
2019-05-20T13:29:00.264Z,69.00
2019-05-20T13:31:30.583Z,68.90
2019-05-20T13:34:01.883Z,68.90
2019-05-20T13:36:44.709Z,69.70
2019-05-20T13:39:14.729Z,69.60
2019-05-20T13:41:54.860Z,70.40
2019-05-20T13:44:28.411Z,71.90
2019-05-20T13:46:59.307Z,71.70
2019-05-20T13:49:38.534Z,72.60
2019-05-20T13:52:18.387Z,73.70
2019-05-20T13:54:54.572Z,72.60
2019-05-20T13:57:34.408Z,73.70
2019-05-20T14:00:10.671Z,75.00
2019-05-20T14:02:49.156Z,76.10
2019-05-20T14:05:25.460Z,77.60
2019-05-20T14:07:55.990Z,78.80
2019-05-20T14:10:30.508Z,79.60
2019-05-20T14:13:10.657Z,80.00
2019-05-20T14:15:46.609Z,81.30
2019-05-20T14:18:19.588Z,82.60
2019-05-20T14:20:59.973Z,83.60
2019-05-20T14:23:32.532Z,84.50
2019-05-20T14:26:08.208Z,87.20
2019-05-20T14:28:38.919Z,92.30
2019-05-20T14:31:10.047Z,99.90
2019-05-20T14:33:40.317Z,99.90
2019-05-20T14:36:37.781Z,99.90
2019-05-20T14:38:49.971Z,99.90
2019-05-20T14:41:24.462Z,99.90
2019-05-20T14:43:59.811Z,99.90
2019-05-20T14:46:36.227Z,99.90
2019-05-20T14:49:17.644Z,99.90
2019-05-20T14:51:50.146Z,99.90
2019-05-20T14:54:24.852Z,99.90
2019-05-20T14:56:59.590Z,99.90
2019-05-20T14:59:29.970Z,99.90
2019-05-20T15:02:05.933Z,99.90
2019-05-20T15:04:43.901Z,99.90
2019-05-20T15:07:28.404Z,99.90
2019-05-20T15:09:56.714Z,99.90
2019-05-20T15:12:39.199Z,99.90
2019-05-20T15:15:14.506Z,99.90
2019-05-20T15:17:45.798Z,99.90
2019-05-20T15:20:16.770Z,99.90
2019-05-20T15:22:50.888Z,99.90
2019-05-20T15:25:32.882Z,99.90
2019-05-20T15:28:11.425Z,99.90
2019-05-20T15:30:42.358Z,99.90
2019-05-20T15:33:18.983Z,99.90
2019-05-20T15:35:54.846Z,99.90
2019-05-20T15:38:40.233Z,99.90
2019-05-20T15:41:16.310Z,99.90
2019-05-20T16:15:01.162Z,99.90
2019-05-20T16:17:35.664Z,99.90
2019-05-20T16:20:23.272Z,99.90
2019-05-20T16:22:57.489Z,99.90
2019-05-20T16:25:27.589Z,99.90
2019-05-20T16:27:58.644Z,99.90
2019-05-20T16:30:44.277Z,99.90
2019-05-20T16:33:21.937Z,99.90
2019-05-20T16:35:53.260Z,99.90
2019-05-20T16:38:31.733Z,99.90
2019-05-20T16:41:07.326Z,99.90
2019-05-20T16:43:38.757Z,99.90
2019-05-20T16:46:08.725Z,99.90
2019-05-20T16:48:38.653Z,99.90
2019-05-20T16:51:09.136Z,99.90
2019-05-20T16:53:39.521Z,99.90
2019-05-20T16:56:10.702Z,99.90
2019-05-20T16:58:44.782Z,99.90
2019-05-20T17:01:45.617Z,99.90
2019-05-20T17:04:06.769Z,99.90
2019-05-20T17:06:38.862Z,99.90
2019-05-20T17:09:16.737Z,99.90
2019-05-20T17:11:48.652Z,99.90
2019-05-20T17:14:24.041Z,99.90
2019-05-20T17:16:57.320Z,99.90
2019-05-20T17:19:29.211Z,99.90
2019-05-20T17:22:08.667Z,99.90
2019-05-20T17:24:41.550Z,99.90
2019-05-20T17:27:15.543Z,99.90
2019-05-20T17:29:51.555Z,99.90
2019-05-20T17:32:29.590Z,99.90
2019-05-20T17:35:08.302Z,99.90
2019-05-20T17:38:25.098Z,99.90
2019-05-20T17:41:02.737Z,99.90
2019-05-20T17:43:41.072Z,99.90
2019-05-20T17:46:13.400Z,99.90
2019-05-20T17:48:45.108Z,99.90
2019-05-20T17:51:16.422Z,99.90
2019-05-20T17:54:02.627Z,99.90
2019-05-20T17:56:33.028Z,99.90
2019-05-20T17:59:03.019Z,99.90
2019-05-20T18:01:33.589Z,99.90
2019-05-20T18:04:03.531Z,99.90
2019-05-20T18:06:33.655Z,99.90
2019-05-20T18:09:04.569Z,99.90
2019-05-20T18:11:34.827Z,99.90
2019-05-20T18:14:05.396Z,99.90
2019-05-20T18:16:35.645Z,99.90
2019-05-20T18:19:06.127Z,99.90
2019-05-20T18:21:36.135Z,99.90
2019-05-20T18:24:07.785Z,99.90
2019-05-20T18:26:37.794Z,99.90
2019-05-20T18:29:07.893Z,99.90
2019-05-20T18:31:37.815Z,99.90
2019-05-20T18:34:07.848Z,99.90
2019-05-20T18:36:37.844Z,99.90
2019-05-20T18:39:08.072Z,99.90
2019-05-20T18:41:38.341Z,99.90
2019-05-20T18:44:08.179Z,99.90
2019-05-20T18:46:38.166Z,99.90
2019-05-20T18:49:08.409Z,99.90
2019-05-20T18:51:39.553Z,99.90
2019-05-20T18:54:09.529Z,99.90
2019-05-20T18:56:39.569Z,99.90
2019-05-20T18:59:14.245Z,99.90
2019-05-20T19:02:02.151Z,99.90
2019-05-20T19:04:16.716Z,99.90
2019-05-20T19:06:48.898Z,99.90
2019-05-20T19:09:18.918Z,99.90
2019-05-20T19:11:50.695Z,99.90
2019-05-20T19:14:26.479Z,99.90
2019-05-20T19:16:56.741Z,99.90
2019-05-20T19:19:27.688Z,99.90
2019-05-20T19:21:57.626Z,99.90
2019-05-20T19:24:27.851Z,99.90
2019-05-20T19:27:01.302Z,99.90
2019-05-20T19:29:31.362Z,99.90
2019-05-20T19:32:02.474Z,99.90
2019-05-20T19:34:33.137Z,99.90
2019-05-20T19:40:05.104Z,99.90
2019-05-20T19:42:34.971Z,99.90
2019-05-20T19:45:05.228Z,99.90
2019-05-20T19:47:35.185Z,99.90
2019-05-20T19:50:05.393Z,99.90
2019-05-20T19:52:35.252Z,99.90
2019-05-20T19:55:05.323Z,99.90
2019-05-20T19:57:35.555Z,99.90
2019-05-20T20:00:06.126Z,99.90
2019-05-20T20:02:35.985Z,99.90
2019-05-20T20:05:06.446Z,99.90
2019-05-20T20:07:36.268Z,99.90
2019-05-20T20:10:06.308Z,99.90
2019-05-20T20:12:36.361Z,99.90
2019-05-20T20:15:07.776Z,99.90
2019-05-20T20:17:37.598Z,99.90
2019-05-20T20:20:08.185Z,99.90
2019-05-20T20:22:38.399Z,99.90
2019-05-20T20:25:08.427Z,99.90
2019-05-20T20:27:38.405Z,99.90
2019-05-20T20:30:08.614Z,99.90
2019-05-20T20:32:39.004Z,99.90
2019-05-20T20:35:09.379Z,99.90
2019-05-20T20:37:40.248Z,99.90
2019-05-20T20:40:10.301Z,99.90
2019-05-20T20:42:40.053Z,99.90
2019-05-20T20:45:10.123Z,99.90
2019-05-20T20:47:42.202Z,99.90
2019-05-20T20:50:12.645Z,99.90
2019-05-20T20:52:42.482Z,99.90
2019-05-20T20:55:12.546Z,99.90
2019-05-20T20:57:42.375Z,99.90
2019-05-20T21:00:12.480Z,99.90
2019-05-20T21:02:52.646Z,99.90
2019-05-20T21:05:13.913Z,99.90
2019-05-20T21:07:43.742Z,99.90
2019-05-20T21:10:13.835Z,99.90
2019-05-20T21:12:44.663Z,99.90
2019-05-20T21:15:14.723Z,99.90
2019-05-20T21:17:44.634Z,99.90
2019-05-20T21:20:14.575Z,99.90
2019-05-20T21:22:44.484Z,99.90
2019-05-20T21:25:14.684Z,99.90
2019-05-20T21:27:44.466Z,99.90
2019-05-20T21:30:14.510Z,99.90
2019-05-20T21:32:44.371Z,99.90
2019-05-20T21:35:14.288Z,99.90
2019-05-20T21:37:44.128Z,99.90
2019-05-20T21:40:13.983Z,99.90
2019-05-20T21:42:43.886Z,99.90
2019-05-20T21:45:13.915Z,99.90
2019-05-20T21:47:44.848Z,99.90
2019-05-20T21:50:14.969Z,99.90
2019-05-20T21:52:44.822Z,99.90
2019-05-20T21:55:14.828Z,99.90
2019-05-20T21:57:44.773Z,99.90
2019-05-20T22:00:18.606Z,99.90
2019-05-20T22:02:48.673Z,99.90
2019-05-20T22:05:18.675Z,99.90
2019-05-20T22:07:49.989Z,99.90
2019-05-20T22:10:19.830Z,99.90
2019-05-20T22:12:49.669Z,99.90
2019-05-20T22:15:19.579Z,99.90
2019-05-20T22:17:49.571Z,99.90
2019-05-20T22:20:19.529Z,99.90
2019-05-20T22:23:08.713Z,99.90
2019-05-20T22:25:38.722Z,99.90
2019-05-20T22:28:12.526Z,99.90
2019-05-20T22:30:40.103Z,99.90
2019-05-20T22:33:09.963Z,99.90
2019-05-20T22:35:39.804Z,99.90
2019-05-20T22:38:09.984Z,99.90
2019-05-20T22:40:39.864Z,99.90
2019-05-20T22:43:09.894Z,99.90
2019-05-20T22:45:39.836Z,99.90
2019-05-20T22:48:09.839Z,99.90
2019-05-20T22:50:39.912Z,99.90
2019-05-20T22:53:09.877Z,99.90
2019-05-20T22:55:39.934Z,99.90
2019-05-20T22:58:09.806Z,99.90
2019-05-20T23:00:39.676Z,99.90
2019-05-20T23:03:09.585Z,99.90
2019-05-20T23:05:39.584Z,99.90
2019-05-20T23:08:09.821Z,99.90
2019-05-20T23:10:39.777Z,99.90
2019-05-20T23:13:09.686Z,99.90
2019-05-20T23:15:39.541Z,99.90
2019-05-20T23:18:09.678Z,99.90
2019-05-20T23:20:39.573Z,99.90
2019-05-20T23:23:09.659Z,99.90
2019-05-20T23:25:39.532Z,99.90
2019-05-20T23:28:09.414Z,99.90
2019-05-20T23:30:39.406Z,99.90
2019-05-20T23:33:09.294Z,99.90
2019-05-20T23:35:39.308Z,99.90
2019-05-20T23:38:09.205Z,99.90
2019-05-20T23:40:39.326Z,99.90
2019-05-20T23:43:09.194Z,99.90
2019-05-20T23:45:39.142Z,99.90
2019-05-20T23:48:09.030Z,99.90
2019-05-20T23:50:39.038Z,99.90
2019-05-20T23:53:09.018Z,99.90
2019-05-20T23:55:38.853Z,99.90
2019-05-20T23:58:08.818Z,99.90
